METAR Data

Data at: 0532 UTC 28 Sep 2022

METAR for:KORH (Worcester Muni, MA, US)
Text:KORH 280454Z 26010KT 10SM SCT075 11/08 A2992 RMK AO2 SLP133 T01060083 402000106 $
Temperature: 10.6°C ( 51°F)
Dewpoint: 8.3°C ( 47°F) [RH = 86%]
Pressure (altimeter):29.92 inches Hg (1013.3 mb) [Sea level pressure: 1013.3 mb]
Winds:from the W (260 degrees) at 12 MPH (10 knots; 5.1 m/s)
Visibility:10 or more sm (16+ km)
Ceiling:at least 12,000 feet AGL
Clouds: scattered clouds at 7500 feet AGL
QC Flag:SOME DATA ABOVE MAY BE INACCURATE!!!"$" is an indication the sensor requires maintenance.